sensor_id;sensor_type;location;lat;lon;timestamp;pressure;altitude;pressure_sealevel;temperature;humidity
30516;BME280;17297;54.022;10.760;2023-05-02T00:00:15;101401.00;;;14.41;50.15
30516;BME280;17297;54.022;10.760;2023-05-02T00:02:40;101401.22;;;14.39;50.35
30516;BME280;17297;54.022;10.760;2023-05-02T00:05:06;101407.63;;;14.38;50.41
30516;BME280;17297;54.022;10.760;2023-05-02T00:07:32;101409.91;;;14.35;50.46
30516;BME280;17297;54.022;10.760;2023-05-02T00:09:58;101407.44;;;14.33;50.59
30516;BME280;17297;54.022;10.760;2023-05-02T00:12:24;101409.28;;;14.32;50.59
30516;BME280;17297;54.022;10.760;2023-05-02T00:14:50;101409.50;;;14.31;50.83
30516;BME280;17297;54.022;10.760;2023-05-02T00:17:16;101414.06;;;14.30;50.86
30516;BME280;17297;54.022;10.760;2023-05-02T00:19:42;101406.97;;;14.29;51.03
30516;BME280;17297;54.022;10.760;2023-05-02T00:22:08;101399.91;;;14.28;51.34
30516;BME280;17297;54.022;10.760;2023-05-02T00:24:33;101403.84;;;14.26;51.17
30516;BME280;17297;54.022;10.760;2023-05-02T00:26:58;101412.19;;;14.24;51.36
30516;BME280;17297;54.022;10.760;2023-05-02T00:29:24;101411.53;;;14.22;51.62
30516;BME280;17297;54.022;10.760;2023-05-02T00:31:49;101412.75;;;14.20;51.70
30516;BME280;17297;54.022;10.760;2023-05-02T00:34:15;101415.69;;;14.18;51.90
30516;BME280;17297;54.022;10.760;2023-05-02T00:36:40;101415.69;;;14.18;51.95
30516;BME280;17297;54.022;10.760;2023-05-02T00:39:05;101411.28;;;14.17;52.05
30516;BME280;17297;54.022;10.760;2023-05-02T00:41:31;101420.25;;;14.18;52.27
30516;BME280;17297;54.022;10.760;2023-05-02T00:43:57;101415.69;;;14.18;52.35
30516;BME280;17297;54.022;10.760;2023-05-02T00:46:22;101412.31;;;14.16;52.51
30516;BME280;17297;54.022;10.760;2023-05-02T00:48:47;101411.50;;;14.16;52.68
30516;BME280;17297;54.022;10.760;2023-05-02T00:51:13;101407.97;;;14.15;52.74
30516;BME280;17297;54.022;10.760;2023-05-02T00:53:39;101409.84;;;14.15;52.85
30516;BME280;17297;54.022;10.760;2023-05-02T00:56:06;101412.72;;;14.13;52.97
30516;BME280;17297;54.022;10.760;2023-05-02T00:58:32;101407.72;;;14.10;53.10
30516;BME280;17297;54.022;10.760;2023-05-02T01:09:36;101400.63;;;14.02;53.19
30516;BME280;17297;54.022;10.760;2023-05-02T01:12:12;101394.78;;;13.99;53.54
30516;BME280;17297;54.022;10.760;2023-05-02T01:14:41;101386.84;;;13.97;53.58
30516;BME280;17297;54.022;10.760;2023-05-02T01:17:11;101402.63;;;13.94;53.68
30516;BME280;17297;54.022;10.760;2023-05-02T01:19:41;101399.28;;;13.92;53.86
30516;BME280;17297;54.022;10.760;2023-05-02T01:22:09;101401.38;;;13.90;53.88
30516;BME280;17297;54.022;10.760;2023-05-02T01:27:32;101413.22;;;13.89;54.05
30516;BME280;17297;54.022;10.760;2023-05-02T01:30:01;101413.03;;;13.90;54.33
30516;BME280;17297;54.022;10.760;2023-05-02T01:32:28;101419.91;;;13.93;54.28
30516;BME280;17297;54.022;10.760;2023-05-02T01:34:56;101421.75;;;13.92;54.45
30516;BME280;17297;54.022;10.760;2023-05-02T01:37:23;101424.28;;;13.94;54.64
30516;BME280;17297;54.022;10.760;2023-05-02T01:39:51;101417.81;;;13.95;54.76
30516;BME280;17297;54.022;10.760;2023-05-02T01:42:19;101425.75;;;13.96;54.82
30516;BME280;17297;54.022;10.760;2023-05-02T01:44:45;101420.13;;;13.98;55.06
30516;BME280;17297;54.022;10.760;2023-05-02T01:47:12;101423.66;;;13.98;55.11
30516;BME280;17297;54.022;10.760;2023-05-02T01:49:38;101419.94;;;13.99;55.22
30516;BME280;17297;54.022;10.760;2023-05-02T01:52:07;101427.84;;;14.01;55.38
30516;BME280;17297;54.022;10.760;2023-05-02T01:54:36;101422.88;;;14.04;55.37
30516;BME280;17297;54.022;10.760;2023-05-02T01:57:04;101426.44;;;14.05;55.36
30516;BME280;17297;54.022;10.760;2023-05-02T01:59:32;101425.41;;;14.06;55.54
30516;BME280;17297;54.022;10.760;2023-05-02T02:02:00;101435.16;;;14.07;55.59
30516;BME280;17297;54.022;10.760;2023-05-02T02:04:27;101437.69;;;14.08;55.55
30516;BME280;17297;54.022;10.760;2023-05-02T02:07:01;101441.22;;;14.09;55.68
30516;BME280;17297;54.022;10.760;2023-05-02T02:09:27;101441.84;;;14.11;55.78
30516;BME280;17297;54.022;10.760;2023-05-02T02:11:58;101445.41;;;14.12;55.83
30516;BME280;17297;54.022;10.760;2023-05-02T02:14:34;101443.53;;;14.12;56.00
30516;BME280;17297;54.022;10.760;2023-05-02T02:17:01;101437.91;;;14.14;56.13
30516;BME280;17297;54.022;10.760;2023-05-02T02:19:29;101447.72;;;14.15;56.17
30516;BME280;17297;54.022;10.760;2023-05-02T02:21:56;101443.97;;;14.16;56.37
30516;BME280;17297;54.022;10.760;2023-05-02T02:24:23;101440.22;;;14.17;56.66
30516;BME280;17297;54.022;10.760;2023-05-02T02:26:50;101442.94;;;14.17;56.45
30516;BME280;17297;54.022;10.760;2023-05-02T02:29:15;101447.09;;;14.19;56.51
30516;BME280;17297;54.022;10.760;2023-05-02T02:31:40;101451.47;;;14.20;56.71
30516;BME280;17297;54.022;10.760;2023-05-02T02:34:07;101453.34;;;14.20;56.79
30516;BME280;17297;54.022;10.760;2023-05-02T02:36:38;101455.03;;;14.21;56.92
30516;BME280;17297;54.022;10.760;2023-05-02T02:42:06;101456.06;;;14.20;57.26
30516;BME280;17297;54.022;10.760;2023-05-02T02:47:18;101462.28;;;14.20;57.33
30516;BME280;17297;54.022;10.760;2023-05-02T02:49:50;101467.72;;;14.20;57.51
30516;BME280;17297;54.022;10.760;2023-05-02T02:52:27;101477.91;;;14.18;57.61
30516;BME280;17297;54.022;10.760;2023-05-02T02:55:06;101496.03;;;14.18;57.62
30516;BME280;17297;54.022;10.760;2023-05-02T02:57:48;101505.56;;;14.14;57.29
30516;BME280;17297;54.022;10.760;2023-05-02T03:00:21;101511.53;;;14.02;57.36
30516;BME280;17297;54.022;10.760;2023-05-02T03:02:47;101527.06;;;13.94;57.32
30516;BME280;17297;54.022;10.760;2023-05-02T03:05:14;101526.75;;;13.82;57.20
30516;BME280;17297;54.022;10.760;2023-05-02T03:07:40;101547.50;;;13.75;57.06
30516;BME280;17297;54.022;10.760;2023-05-02T03:10:06;101545.50;;;13.62;56.99
30516;BME280;17297;54.022;10.760;2023-05-02T03:12:33;101554.78;;;13.53;56.99
30516;BME280;17297;54.022;10.760;2023-05-02T03:17:50;101569.94;;;13.32;56.73
30516;BME280;17297;54.022;10.760;2023-05-02T03:20:15;101577.16;;;13.25;56.77
30516;BME280;17297;54.022;10.760;2023-05-02T03:22:41;101576.22;;;13.18;56.75
30516;BME280;17297;54.022;10.760;2023-05-02T03:25:06;101591.47;;;13.11;56.63
30516;BME280;17297;54.022;10.760;2023-05-02T03:27:33;101597.84;;;13.03;56.28
30516;BME280;17297;54.022;10.760;2023-05-02T03:30:00;101606.22;;;12.93;56.25
30516;BME280;17297;54.022;10.760;2023-05-02T03:32:27;101604.66;;;12.84;56.05
30516;BME280;17297;54.022;10.760;2023-05-02T03:34:52;101616.19;;;12.78;55.92
30516;BME280;17297;54.022;10.760;2023-05-02T03:37:24;101614.25;;;12.72;55.84
30516;BME280;17297;54.022;10.760;2023-05-02T03:39:50;101615.66;;;12.68;55.73
30516;BME280;17297;54.022;10.760;2023-05-02T03:42:15;101626.53;;;12.60;55.79
30516;BME280;17297;54.022;10.760;2023-05-02T03:44:41;101620.47;;;12.58;55.87
30516;BME280;17297;54.022;10.760;2023-05-02T03:47:06;101622.03;;;12.52;55.41
30516;BME280;17297;54.022;10.760;2023-05-02T03:49:37;101627.34;;;12.45;55.29
30516;BME280;17297;54.022;10.760;2023-05-02T03:52:03;101629.75;;;12.40;55.28
30516;BME280;17297;54.022;10.760;2023-05-02T03:54:32;101635.44;;;12.31;55.00
30516;BME280;17297;54.022;10.760;2023-05-02T03:56:58;101640.69;;;12.24;54.82
30516;BME280;17297;54.022;10.760;2023-05-02T03:59:31;101654.06;;;12.17;54.84
30516;BME280;17297;54.022;10.760;2023-05-02T04:01:56;101651.94;;;12.13;54.68
30516;BME280;17297;54.022;10.760;2023-05-02T04:04:31;101653.47;;;12.07;54.64
30516;BME280;17297;54.022;10.760;2023-05-02T04:06:57;101670.84;;;12.05;54.51
30516;BME280;17297;54.022;10.760;2023-05-02T04:09:22;101671.22;;;12.01;54.49
30516;BME280;17297;54.022;10.760;2023-05-02T04:11:54;101676.81;;;12.00;54.28
30516;BME280;17297;54.022;10.760;2023-05-02T04:14:19;101677.31;;;11.95;54.04
30516;BME280;17297;54.022;10.760;2023-05-02T04:16:49;101685.97;;;11.91;53.92
30516;BME280;17297;54.022;10.760;2023-05-02T04:19:18;101690.88;;;11.87;54.03
30516;BME280;17297;54.022;10.760;2023-05-02T04:21:44;101692.19;;;11.83;53.66
30516;BME280;17297;54.022;10.760;2023-05-02T04:24:10;101703.19;;;11.82;53.70
30516;BME280;17297;54.022;10.760;2023-05-02T04:26:36;101713.28;;;11.79;53.57
30516;BME280;17297;54.022;10.760;2023-05-02T04:29:05;101719.03;;;11.76;53.43
30516;BME280;17297;54.022;10.760;2023-05-02T04:31:31;101725.09;;;11.78;53.20
30516;BME280;17297;54.022;10.760;2023-05-02T04:33:57;101736.72;;;11.79;53.18
30516;BME280;17297;54.022;10.760;2023-05-02T04:36:25;101747.50;;;11.79;53.17
30516;BME280;17297;54.022;10.760;2023-05-02T04:38:52;101735.88;;;11.78;52.97
30516;BME280;17297;54.022;10.760;2023-05-02T04:41:18;101751.88;;;11.80;52.94
30516;BME280;17297;54.022;10.760;2023-05-02T04:43:50;101750.34;;;11.86;52.71
30516;BME280;17297;54.022;10.760;2023-05-02T04:46:16;101755.53;;;11.95;52.50
30516;BME280;17297;54.022;10.760;2023-05-02T04:48:44;101755.81;;;12.09;52.34
30516;BME280;17297;54.022;10.760;2023-05-02T04:51:10;101758.91;;;12.20;52.17
30516;BME280;17297;54.022;10.760;2023-05-02T04:53:36;101769.75;;;12.35;52.08
30516;BME280;17297;54.022;10.760;2023-05-02T04:56:02;101774.19;;;12.51;51.78
30516;BME280;17297;54.022;10.760;2023-05-02T04:58:29;101774.66;;;12.78;51.43
30516;BME280;17297;54.022;10.760;2023-05-02T05:00:59;101784.78;;;13.13;51.33
30516;BME280;17297;54.022;10.760;2023-05-02T05:03:25;101773.66;;;13.46;50.99
30516;BME280;17297;54.022;10.760;2023-05-02T05:05:50;101780.53;;;13.63;50.66
30516;BME280;17297;54.022;10.760;2023-05-02T05:08:17;101781.88;;;13.89;50.44
30516;BME280;17297;54.022;10.760;2023-05-02T05:10:43;101793.66;;;14.18;50.17
30516;BME280;17297;54.022;10.760;2023-05-02T05:13:08;101789.38;;;14.66;50.13
30516;BME280;17297;54.022;10.760;2023-05-02T05:15:34;101803.75;;;15.16;49.51
30516;BME280;17297;54.022;10.760;2023-05-02T05:18:00;101800.47;;;15.62;49.16
30516;BME280;17297;54.022;10.760;2023-05-02T05:20:26;101799.06;;;16.14;48.61
30516;BME280;17297;54.022;10.760;2023-05-02T05:22:55;101804.59;;;16.68;47.94
30516;BME280;17297;54.022;10.760;2023-05-02T05:25:21;101806.91;;;17.04;46.95
30516;BME280;17297;54.022;10.760;2023-05-02T05:27:48;101801.88;;;17.21;46.56
30516;BME280;17297;54.022;10.760;2023-05-02T05:30:16;101811.28;;;17.25;46.45
30516;BME280;17297;54.022;10.760;2023-05-02T05:32:42;101813.81;;;17.20;45.85
30516;BME280;17297;54.022;10.760;2023-05-02T05:35:08;101819.50;;;16.92;45.47
30516;BME280;17297;54.022;10.760;2023-05-02T05:37:34;101816.72;;;16.72;45.56
30516;BME280;17297;54.022;10.760;2023-05-02T05:40:06;101823.38;;;16.49;45.58
30516;BME280;17297;54.022;10.760;2023-05-02T05:42:31;101824.75;;;16.19;45.38
30516;BME280;17297;54.022;10.760;2023-05-02T05:45:00;101828.19;;;15.86;45.24
30516;BME280;17297;54.022;10.760;2023-05-02T05:47:26;101839.66;;;15.53;45.50
30516;BME280;17297;54.022;10.760;2023-05-02T05:49:52;101841.56;;;15.24;45.65
30516;BME280;17297;54.022;10.760;2023-05-02T05:52:18;101845.06;;;14.97;45.62
30516;BME280;17297;54.022;10.760;2023-05-02T05:54:44;101852.97;;;14.70;45.80
30516;BME280;17297;54.022;10.760;2023-05-02T05:57:09;101852.44;;;14.45;46.01
30516;BME280;17297;54.022;10.760;2023-05-02T05:59:35;101852.63;;;14.22;46.36
30516;BME280;17297;54.022;10.760;2023-05-02T06:02:01;101853.41;;;14.01;46.43
30516;BME280;17297;54.022;10.760;2023-05-02T06:04:26;101855.94;;;13.88;46.69
30516;BME280;17297;54.022;10.760;2023-05-02T06:06:52;101868.25;;;13.76;46.79
30516;BME280;17297;54.022;10.760;2023-05-02T06:09:18;101876.84;;;13.65;46.81
30516;BME280;17297;54.022;10.760;2023-05-02T06:11:43;101878.78;;;13.56;46.80
30516;BME280;17297;54.022;10.760;2023-05-02T06:14:09;101874.03;;;13.43;46.58
30516;BME280;17297;54.022;10.760;2023-05-02T06:16:35;101882.78;;;13.30;46.82
30516;BME280;17297;54.022;10.760;2023-05-02T06:19:00;101887.19;;;13.23;46.96
30516;BME280;17297;54.022;10.760;2023-05-02T06:21:26;101891.44;;;13.17;47.22
30516;BME280;17297;54.022;10.760;2023-05-02T06:23:51;101895.72;;;13.12;47.17
30516;BME280;17297;54.022;10.760;2023-05-02T06:26:19;101893.09;;;13.04;47.16
30516;BME280;17297;54.022;10.760;2023-05-02T06:28:45;101902.75;;;12.98;47.37
30516;BME280;17297;54.022;10.760;2023-05-02T06:31:12;101904.31;;;12.92;47.12
30516;BME280;17297;54.022;10.760;2023-05-02T06:33:37;101914.63;;;12.89;47.14
30516;BME280;17297;54.022;10.760;2023-05-02T06:36:03;101914.00;;;12.87;47.32
30516;BME280;17297;54.022;10.760;2023-05-02T06:38:28;101919.75;;;12.84;47.32
30516;BME280;17297;54.022;10.760;2023-05-02T06:40:54;101920.28;;;12.79;47.03
30516;BME280;17297;54.022;10.760;2023-05-02T06:43:19;101926.38;;;12.73;47.12
30516;BME280;17297;54.022;10.760;2023-05-02T06:45:44;101935.19;;;12.67;47.05
30516;BME280;17297;54.022;10.760;2023-05-02T06:48:10;101942.66;;;12.65;47.07
30516;BME280;17297;54.022;10.760;2023-05-02T06:50:36;101945.03;;;12.60;47.09
30516;BME280;17297;54.022;10.760;2023-05-02T06:53:02;101948.56;;;12.60;47.29
30516;BME280;17297;54.022;10.760;2023-05-02T06:55:28;101946.91;;;12.59;47.03
30516;BME280;17297;54.022;10.760;2023-05-02T06:57:54;101948.56;;;12.60;47.35
30516;BME280;17297;54.022;10.760;2023-05-02T07:00:19;101960.19;;;12.61;47.25
30516;BME280;17297;54.022;10.760;2023-05-02T07:02:46;101962.53;;;12.64;47.26
30516;BME280;17297;54.022;10.760;2023-05-02T07:05:12;101969.28;;;12.68;47.24
30516;BME280;17297;54.022;10.760;2023-05-02T07:07:39;101961.84;;;12.70;47.23
30516;BME280;17297;54.022;10.760;2023-05-02T07:10:05;101970.41;;;12.74;47.26
30516;BME280;17297;54.022;10.760;2023-05-02T07:12:30;101978.84;;;12.79;47.07
30516;BME280;17297;54.022;10.760;2023-05-02T07:14:56;101977.66;;;12.81;47.02
30516;BME280;17297;54.022;10.760;2023-05-02T07:17:21;101981.00;;;12.83;47.12
30516;BME280;17297;54.022;10.760;2023-05-02T07:19:47;101984.56;;;12.84;46.80
30516;BME280;17297;54.022;10.760;2023-05-02T07:22:13;101982.22;;;12.81;46.85
30516;BME280;17297;54.022;10.760;2023-05-02T07:24:41;101995.88;;;12.79;46.69
30516;BME280;17297;54.022;10.760;2023-05-02T07:27:11;101988.97;;;12.77;46.47
30516;BME280;17297;54.022;10.760;2023-05-02T07:29:37;101998.56;;;12.79;46.76
30516;BME280;17297;54.022;10.760;2023-05-02T07:32:03;102006.16;;;12.84;46.68
30516;BME280;17297;54.022;10.760;2023-05-02T07:34:29;102013.91;;;12.87;46.60
30516;BME280;17297;54.022;10.760;2023-05-02T07:36:54;102007.97;;;12.91;46.68
30516;BME280;17297;54.022;10.760;2023-05-02T07:39:20;102000.34;;;12.95;46.56
30516;BME280;17297;54.022;10.760;2023-05-02T07:41:46;102012.84;;;12.96;46.53
30516;BME280;17297;54.022;10.760;2023-05-02T07:44:11;102007.94;;;13.00;46.59
30516;BME280;17297;54.022;10.760;2023-05-02T07:46:36;102013.81;;;13.03;46.60
30516;BME280;17297;54.022;10.760;2023-05-02T07:49:02;102021.19;;;13.09;46.34
30516;BME280;17297;54.022;10.760;2023-05-02T07:51:27;102022.34;;;13.15;46.42
30516;BME280;17297;54.022;10.760;2023-05-02T07:53:53;102026.38;;;13.19;46.42
30516;BME280;17297;54.022;10.760;2023-05-02T07:56:20;102018.56;;;13.24;46.24
30516;BME280;17297;54.022;10.760;2023-05-02T07:58:45;102017.22;;;13.28;46.35
30516;BME280;17297;54.022;10.760;2023-05-02T08:01:11;102025.81;;;13.32;46.14
30516;BME280;17297;54.022;10.760;2023-05-02T08:03:36;102023.94;;;13.32;46.15
30516;BME280;17297;54.022;10.760;2023-05-02T08:06:01;102031.31;;;13.38;46.20
30516;BME280;17297;54.022;10.760;2023-05-02T08:08:27;102023.53;;;13.44;45.99
30516;BME280;17297;54.022;10.760;2023-05-02T08:10:53;102030.91;;;13.50;45.98
30516;BME280;17297;54.022;10.760;2023-05-02T08:13:18;102044.91;;;13.53;45.82
30516;BME280;17297;54.022;10.760;2023-05-02T08:15:46;102045.38;;;13.57;45.79
30516;BME280;17297;54.022;10.760;2023-05-02T08:18:12;102044.66;;;13.63;45.66
30516;BME280;17297;54.022;10.760;2023-05-02T08:20:37;102033.78;;;13.71;45.81
30516;BME280;17297;54.022;10.760;2023-05-02T08:23:02;102059.22;;;13.77;45.50
30516;BME280;17297;54.022;10.760;2023-05-02T08:25:27;102058.22;;;13.78;45.48
30516;BME280;17297;54.022;10.760;2023-05-02T08:27:54;102069.97;;;13.85;45.29
30516;BME280;17297;54.022;10.760;2023-05-02T08:30:19;102065.25;;;13.87;45.02
30516;BME280;17297;54.022;10.760;2023-05-02T08:32:45;102067.75;;;13.89;45.02
30516;BME280;17297;54.022;10.760;2023-05-02T08:35:11;102069.72;;;13.95;44.64
30516;BME280;17297;54.022;10.760;2023-05-02T08:37:38;102071.69;;;14.01;44.57
30516;BME280;17297;54.022;10.760;2023-05-02T08:40:03;102073.66;;;14.07;44.73
30516;BME280;17297;54.022;10.760;2023-05-02T08:42:32;102078.34;;;14.13;44.25
30516;BME280;17297;54.022;10.760;2023-05-02T08:44:57;102084.31;;;14.23;44.50
30516;BME280;17297;54.022;10.760;2023-05-02T08:47:24;102085.19;;;14.39;44.11
30516;BME280;17297;54.022;10.760;2023-05-02T08:49:52;102081.69;;;14.53;44.27
30516;BME280;17297;54.022;10.760;2023-05-02T08:52:19;102084.19;;;14.69;44.01
30516;BME280;17297;54.022;10.760;2023-05-02T08:54:45;102086.91;;;14.84;44.03
30516;BME280;17297;54.022;10.760;2023-05-02T08:57:10;102093.31;;;14.98;43.81
30516;BME280;17297;54.022;10.760;2023-05-02T08:59:36;102085.53;;;15.10;43.57
30516;BME280;17297;54.022;10.760;2023-05-02T09:02:17;102094.19;;;15.20;43.69
30516;BME280;17297;54.022;10.760;2023-05-02T09:04:47;102088.97;;;15.18;43.32
30516;BME280;17297;54.022;10.760;2023-05-02T09:07:17;102095.06;;;15.20;43.39
30516;BME280;17297;54.022;10.760;2023-05-02T09:09:42;102094.84;;;15.22;43.53
30516;BME280;17297;54.022;10.760;2023-05-02T09:12:07;102106.75;;;15.21;43.31
30516;BME280;17297;54.022;10.760;2023-05-02T09:14:33;102112.41;;;15.26;43.07
30516;BME280;17297;54.022;10.760;2023-05-02T09:16:58;102108.88;;;15.25;43.19
30516;BME280;17297;54.022;10.760;2023-05-02T09:19:25;102115.31;;;15.24;43.22
30516;BME280;17297;54.022;10.760;2023-05-02T09:21:51;102115.72;;;15.21;42.92
30516;BME280;17297;54.022;10.760;2023-05-02T09:24:18;102125.88;;;15.19;42.95
30516;BME280;17297;54.022;10.760;2023-05-02T09:27:00;102116.91;;;15.19;43.19
30516;BME280;17297;54.022;10.760;2023-05-02T09:29:27;102123.84;;;15.21;42.82
30516;BME280;17297;54.022;10.760;2023-05-02T09:32:01;102130.47;;;15.19;43.06
30516;BME280;17297;54.022;10.760;2023-05-02T09:34:27;102134.84;;;15.20;42.96
30516;BME280;17297;54.022;10.760;2023-05-02T09:36:52;102139.34;;;15.28;43.17
30516;BME280;17297;54.022;10.760;2023-05-02T09:39:23;102132.13;;;15.35;43.13
30516;BME280;17297;54.022;10.760;2023-05-02T09:41:49;102138.59;;;15.34;42.76
30516;BME280;17297;54.022;10.760;2023-05-02T09:44:24;102135.41;;;15.30;42.70
30516;BME280;17297;54.022;10.760;2023-05-02T09:46:52;102143.09;;;15.27;42.84
30516;BME280;17297;54.022;10.760;2023-05-02T09:49:18;102137.84;;;15.25;42.84
30516;BME280;17297;54.022;10.760;2023-05-02T09:51:47;102141.22;;;15.27;43.09
30516;BME280;17297;54.022;10.760;2023-05-02T09:54:13;102141.75;;;15.37;43.03
30516;BME280;17297;54.022;10.760;2023-05-02T09:56:55;102141.66;;;15.45;42.96
30516;BME280;17297;54.022;10.760;2023-05-02T09:59:21;102147.13;;;15.52;42.95
30516;BME280;17297;54.022;10.760;2023-05-02T10:01:53;102151.22;;;15.63;42.99
30516;BME280;17297;54.022;10.760;2023-05-02T10:04:19;102150.53;;;15.76;42.60
30516;BME280;17297;54.022;10.760;2023-05-02T10:06:46;102147.09;;;15.88;42.79
30516;BME280;17297;54.022;10.760;2023-05-02T10:09:13;102141.38;;;15.98;42.58
30516;BME280;17297;54.022;10.760;2023-05-02T10:11:41;102158.09;;;16.02;42.41
30516;BME280;17297;54.022;10.760;2023-05-02T10:14:08;102152.84;;;16.00;42.27
30516;BME280;17297;54.022;10.760;2023-05-02T10:16:36;102170.63;;;16.03;42.42
30516;BME280;17297;54.022;10.760;2023-05-02T10:19:08;102163.53;;;16.02;42.20
30516;BME280;17297;54.022;10.760;2023-05-02T10:21:35;102161.66;;;16.02;42.25
30516;BME280;17297;54.022;10.760;2023-05-02T10:24:01;102157.91;;;16.03;42.04
30516;BME280;17297;54.022;10.760;2023-05-02T10:26:30;102163.72;;;16.00;41.64
30516;BME280;17297;54.022;10.760;2023-05-02T10:28:59;102171.22;;;15.98;42.08
30516;BME280;17297;54.022;10.760;2023-05-02T10:31:25;102167.66;;;15.98;41.91
30516;BME280;17297;54.022;10.760;2023-05-02T10:33:51;102162.28;;;16.04;41.94
30516;BME280;17297;54.022;10.760;2023-05-02T10:36:20;102170.69;;;16.09;41.61
30516;BME280;17297;54.022;10.760;2023-05-02T10:38:46;102171.41;;;16.18;42.24
30516;BME280;17297;54.022;10.760;2023-05-02T10:41:15;102167.50;;;16.27;41.70
30516;BME280;17297;54.022;10.760;2023-05-02T10:43:45;102168.22;;;16.36;41.81
30516;BME280;17297;54.022;10.760;2023-05-02T10:49:04;102172.59;;;16.37;41.31
30516;BME280;17297;54.022;10.760;2023-05-02T10:51:31;102182.38;;;16.31;41.43
30516;BME280;17297;54.022;10.760;2023-05-02T10:54:23;102183.16;;;16.25;41.72
30516;BME280;17297;54.022;10.760;2023-05-02T10:59:40;102184.31;;;16.16;41.77
30516;BME280;17297;54.022;10.760;2023-05-02T11:05:01;102193.38;;;16.23;41.72
30516;BME280;17297;54.022;10.760;2023-05-02T11:07:28;102210.31;;;16.25;41.24
30516;BME280;17297;54.022;10.760;2023-05-02T11:10:23;102203.84;;;16.26;41.72
30516;BME280;17297;54.022;10.760;2023-05-02T11:12:49;102202.38;;;16.24;41.34
30516;BME280;17297;54.022;10.760;2023-05-02T11:18:07;102210.06;;;16.20;42.13
30516;BME280;17297;54.022;10.760;2023-05-02T11:20:34;102219.38;;;16.11;41.61
30516;BME280;17297;54.022;10.760;2023-05-02T11:25:42;102206.88;;;16.16;41.62
30516;BME280;17297;54.022;10.760;2023-05-02T11:31:04;102205.25;;;16.22;41.37
30516;BME280;17297;54.022;10.760;2023-05-02T11:33:30;102205.66;;;16.19;41.31
30516;BME280;17297;54.022;10.760;2023-05-02T11:35:55;102215.22;;;16.15;41.26
30516;BME280;17297;54.022;10.760;2023-05-02T11:38:22;102212.06;;;16.11;41.19
30516;BME280;17297;54.022;10.760;2023-05-02T11:40:56;102221.88;;;16.12;41.25
30516;BME280;17297;54.022;10.760;2023-05-02T11:43:24;102213.56;;;16.14;41.24
30516;BME280;17297;54.022;10.760;2023-05-02T11:45:50;102228.97;;;16.13;41.08
30516;BME280;17297;54.022;10.760;2023-05-02T11:48:20;102220.38;;;16.10;41.08
30516;BME280;17297;54.022;10.760;2023-05-02T11:50:51;102231.44;;;16.08;41.15
30516;BME280;17297;54.022;10.760;2023-05-02T11:53:19;102229.31;;;16.04;40.85
30516;BME280;17297;54.022;10.760;2023-05-02T11:56:08;102222.78;;;15.98;41.18
30516;BME280;17297;54.022;10.760;2023-05-02T11:58:33;102240.31;;;15.96;41.63
30516;BME280;17297;54.022;10.760;2023-05-02T12:01:12;102238.75;;;15.86;41.56
30516;BME280;17297;54.022;10.760;2023-05-02T12:03:38;102250.16;;;15.82;41.41
30516;BME280;17297;54.022;10.760;2023-05-02T12:06:08;102249.91;;;15.77;41.32
30516;BME280;17297;54.022;10.760;2023-05-02T12:08:37;102252.34;;;15.72;41.24
30516;BME280;17297;54.022;10.760;2023-05-02T12:11:03;102256.47;;;15.67;41.33
30516;BME280;17297;54.022;10.760;2023-05-02T12:13:28;102257.31;;;15.68;41.14
30516;BME280;17297;54.022;10.760;2023-05-02T12:15:55;102255.97;;;15.64;41.05
30516;BME280;17297;54.022;10.760;2023-05-02T12:18:23;102265.13;;;15.63;41.37
30516;BME280;17297;54.022;10.760;2023-05-02T12:20:50;102272.44;;;15.62;41.26
30516;BME280;17297;54.022;10.760;2023-05-02T12:23:18;102265.34;;;15.61;41.15
30516;BME280;17297;54.022;10.760;2023-05-02T12:25:45;102275.34;;;15.61;41.55
30516;BME280;17297;54.022;10.760;2023-05-02T12:28:10;102267.00;;;15.62;41.48
30516;BME280;17297;54.022;10.760;2023-05-02T12:30:37;102275.97;;;15.63;41.28
30516;BME280;17297;54.022;10.760;2023-05-02T12:33:03;102286.38;;;15.59;41.17
30516;BME280;17297;54.022;10.760;2023-05-02T12:35:30;102277.78;;;15.56;41.28
30516;BME280;17297;54.022;10.760;2023-05-02T12:38:14;102290.50;;;15.55;41.25
30516;BME280;17297;54.022;10.760;2023-05-02T12:40:53;102286.28;;;15.53;41.18
30516;BME280;17297;54.022;10.760;2023-05-02T12:43:21;102291.25;;;15.49;41.24
30516;BME280;17297;54.022;10.760;2023-05-02T12:45:47;102292.47;;;15.46;40.94
30516;BME280;17297;54.022;10.760;2023-05-02T12:48:24;102301.16;;;15.42;40.92
30516;BME280;17297;54.022;10.760;2023-05-02T12:50:50;102302.38;;;15.39;41.12
30516;BME280;17297;54.022;10.760;2023-05-02T12:53:16;102302.38;;;15.39;41.06
30516;BME280;17297;54.022;10.760;2023-05-02T12:55:42;102298.44;;;15.42;40.95
30516;BME280;17297;54.022;10.760;2023-05-02T12:58:09;102298.25;;;15.43;41.25
30516;BME280;17297;54.022;10.760;2023-05-02T13:00:38;102292.25;;;15.48;41.28
30516;BME280;17297;54.022;10.760;2023-05-02T13:03:03;102297.31;;;15.51;41.12
30516;BME280;17297;54.022;10.760;2023-05-02T13:05:29;102292.38;;;15.55;41.19
30516;BME280;17297;54.022;10.760;2023-05-02T13:07:55;102290.75;;;15.60;41.08
30516;BME280;17297;54.022;10.760;2023-05-02T13:10:22;102287.28;;;15.66;40.96
30516;BME280;17297;54.022;10.760;2023-05-02T13:12:49;102289.94;;;15.75;40.99
30516;BME280;17297;54.022;10.760;2023-05-02T13:15:14;102288.97;;;15.82;40.84
30516;BME280;17297;54.022;10.760;2023-05-02T13:17:40;102291.78;;;15.89;40.87